Radar AviationWeather DUATS TFRs Wunderground Accuweather Weather.com

Radar

TAFs

KDTW 191628Z 1916/2018 22012KT P6SM SCT045 BKN070 OVC200
     TEMPO 1916/1918 BKN025
   FM191800 23013G20KT P6SM BKN050
     TEMPO 1919/1923 2SM TSRA OVC030CB
   FM200100 20008KT P6SM SCT080 SCT250
KJXN 191535Z 1916/2012 23012G21KT P6SM BKN018
   FM191900 24012G21KT P6SM BKN035
   FM200000 22008KT P6SM SCT035 BKN250
KCLE 191516Z 1915/2018 23012G20KT P6SM BKN250
     TEMPO 1915/1917 BKN020
   FM200000 22010KT P6SM BKN250
     PROB30 2000/2003 5SM -TSRA BKN050CB
   FM200600 22010KT 6SM HZ BKN250
KFWA 191432Z 1915/2012 23012KT P6SM BKN015 BKN250
   FM191600 23013G21KT P6SM BKN035
   FM200100 23011KT P6SM SCT250
KFDY 191120Z 1912/2012 22009KT P6SM SCT015 BKN045
     TEMPO 1912/1914 BKN015
   FM191400 23012G18KT P6SM BKN250
   FM200000 22009KT P6SM SCT250
   FM200600 22007KT 6SM HZ BKN250
KTOL 191120Z 1912/2012 23010KT P6SM SCT018 BKN250
     TEMPO 1912/1914 BKN018
   FM191400 23012G18KT P6SM BKN250
   FM192300 23008KT 6SM HZ BKN250

METARs

KDUH 191716Z AUTO 23009G16KT 10SM BKN022 BKN027 A2987 RMK AO2
KTOL 191659Z 23011G19KT 10SM BKN021 33/26 A2987 RMK AO2 T03280256
KJXN 191656Z 23012G20KT 10SM BKN023 OVC028 30/26 A2988 RMK AO2 SLP111 T03000256
KFWA 191654Z 22014KT 10SM BKN022 BKN250 31/26 A2992 RMK AO2 SLP123 T03060256
KDTW 191653Z 24016KT 8SM BKN025 BKN250 32/25 A2985 RMK AO2 SLP102 T03220250
KFDY 191653Z AUTO 20012KT 10SM CLR 33/26 A2990 RMK AO2 SLP114 T03330261
KTDZ 191653Z AUTO 21014G22KT 10SM FEW023 32/26 A2988 RMK AO2 SLP111 T03220256
KCLE 191651Z 20011G17KT 10SM SCT020 BKN250 32/26 A2993 RMK AO2 SLP126 T03170256 $

Satellite

TFRs